Terminal Aerodrome Forecast
Issued by NWS Cleveland, OH

Home | Current Version | Previous Version | Graphics & Text | Print | Product List | Glossary On
Versions: 1 2 3 4 5 6 7 8 9 10 11 12 13 14 15 16 17 18 19
000
FTUS41 KCLE 261100
TAFYNG
TAF
KYNG 261131Z 2612/2712 03011KT 3SM -SN BR OVC025
      TEMPO 2612/2615 1SM -SN BR BKN010
     FM261500 03012KT 3SM -SN BR OVC020
     FM270300 01006KT 5SM -SN OVC012=

USA.gov is the U.S. government's official web portal to all federal, state and local government web resources and services.